sensor_id;sensor_type;location;lat;lon;timestamp;temperature;humidity
1570;DHT22;778;50.120;8.698;2023-12-14T00:01:52;7.10;99.90
1570;DHT22;778;50.120;8.698;2023-12-14T00:04:21;7.20;99.90
1570;DHT22;778;50.120;8.698;2023-12-14T00:06:49;7.10;99.90
1570;DHT22;778;50.120;8.698;2023-12-14T00:09:18;7.10;99.90
1570;DHT22;778;50.120;8.698;2023-12-14T00:11:47;7.20;99.90
1570;DHT22;778;50.120;8.698;2023-12-14T00:14:16;7.10;99.90
1570;DHT22;778;50.120;8.698;2023-12-14T00:16:45;7.10;99.90
1570;DHT22;778;50.120;8.698;2023-12-14T00:19:13;7.10;99.90
1570;DHT22;778;50.120;8.698;2023-12-14T00:21:42;7.10;99.90
1570;DHT22;778;50.120;8.698;2023-12-14T00:24:10;7.20;99.90
1570;DHT22;778;50.120;8.698;2023-12-14T00:26:39;7.10;99.90
1570;DHT22;778;50.120;8.698;2023-12-14T00:29:07;7.10;99.90
1570;DHT22;778;50.120;8.698;2023-12-14T00:31:37;7.10;99.90
1570;DHT22;778;50.120;8.698;2023-12-14T00:34:06;7.10;99.90
1570;DHT22;778;50.120;8.698;2023-12-14T00:36:34;7.10;99.90
1570;DHT22;778;50.120;8.698;2023-12-14T00:39:03;7.10;99.90
1570;DHT22;778;50.120;8.698;2023-12-14T00:41:32;7.10;99.90
1570;DHT22;778;50.120;8.698;2023-12-14T00:44:00;7.00;99.90
1570;DHT22;778;50.120;8.698;2023-12-14T00:46:29;7.00;99.90
1570;DHT22;778;50.120;8.698;2023-12-14T00:48:58;6.90;99.90
1570;DHT22;778;50.120;8.698;2023-12-14T00:51:29;7.00;99.90
1570;DHT22;778;50.120;8.698;2023-12-14T00:53:57;7.00;99.90
1570;DHT22;778;50.120;8.698;2023-12-14T00:56:25;7.00;99.90
1570;DHT22;778;50.120;8.698;2023-12-14T00:58:54;7.00;99.90
1570;DHT22;778;50.120;8.698;2023-12-14T01:01:22;7.00;99.90
1570;DHT22;778;50.120;8.698;2023-12-14T01:03:51;7.10;99.90
1570;DHT22;778;50.120;8.698;2023-12-14T01:06:21;7.10;99.90
1570;DHT22;778;50.120;8.698;2023-12-14T01:08:49;7.10;99.90
1570;DHT22;778;50.120;8.698;2023-12-14T01:11:17;7.10;99.90
1570;DHT22;778;50.120;8.698;2023-12-14T01:13:46;7.10;99.90
1570;DHT22;778;50.120;8.698;2023-12-14T01:16:14;7.10;99.90
1570;DHT22;778;50.120;8.698;2023-12-14T01:18:43;7.10;99.90
1570;DHT22;778;50.120;8.698;2023-12-14T01:21:12;7.00;99.90
1570;DHT22;778;50.120;8.698;2023-12-14T01:23:42;7.10;99.90
1570;DHT22;778;50.120;8.698;2023-12-14T01:26:10;7.30;99.90
1570;DHT22;778;50.120;8.698;2023-12-14T01:28:39;7.30;99.90
1570;DHT22;778;50.120;8.698;2023-12-14T01:31:07;7.30;99.90
1570;DHT22;778;50.120;8.698;2023-12-14T01:33:36;7.40;99.90
1570;DHT22;778;50.120;8.698;2023-12-14T01:36:05;7.60;99.90
1570;DHT22;778;50.120;8.698;2023-12-14T01:38:33;7.50;99.90
1570;DHT22;778;50.120;8.698;2023-12-14T01:41:04;7.50;99.90
1570;DHT22;778;50.120;8.698;2023-12-14T01:43:32;7.40;99.90
1570;DHT22;778;50.120;8.698;2023-12-14T01:46:01;7.40;99.90
1570;DHT22;778;50.120;8.698;2023-12-14T01:48:29;7.30;99.90
1570;DHT22;778;50.120;8.698;2023-12-14T01:50:58;7.40;99.90
1570;DHT22;778;50.120;8.698;2023-12-14T01:53:27;7.30;99.90
1570;DHT22;778;50.120;8.698;2023-12-14T01:55:55;7.30;99.90
1570;DHT22;778;50.120;8.698;2023-12-14T01:58:25;7.40;99.90
1570;DHT22;778;50.120;8.698;2023-12-14T02:01:02;7.30;99.90
1570;DHT22;778;50.120;8.698;2023-12-14T02:03:34;7.40;99.90
1570;DHT22;778;50.120;8.698;2023-12-14T02:06:03;7.40;99.90
1570;DHT22;778;50.120;8.698;2023-12-14T02:08:31;7.40;99.90
1570;DHT22;778;50.120;8.698;2023-12-14T02:11:00;7.40;99.90
1570;DHT22;778;50.120;8.698;2023-12-14T02:13:30;7.40;99.90
1570;DHT22;778;50.120;8.698;2023-12-14T02:15:58;7.40;99.90
1570;DHT22;778;50.120;8.698;2023-12-14T02:18:27;7.40;99.90
1570;DHT22;778;50.120;8.698;2023-12-14T02:20:56;7.40;99.90
1570;DHT22;778;50.120;8.698;2023-12-14T02:23:25;7.30;99.90
1570;DHT22;778;50.120;8.698;2023-12-14T02:25:54;7.30;99.90
1570;DHT22;778;50.120;8.698;2023-12-14T02:28:22;7.30;99.90
1570;DHT22;778;50.120;8.698;2023-12-14T02:30:51;7.30;99.90
1570;DHT22;778;50.120;8.698;2023-12-14T02:33:19;7.30;99.90
1570;DHT22;778;50.120;8.698;2023-12-14T02:35:48;7.30;99.90
1570;DHT22;778;50.120;8.698;2023-12-14T02:38:16;7.30;99.90
1570;DHT22;778;50.120;8.698;2023-12-14T02:40:46;7.20;99.90
1570;DHT22;778;50.120;8.698;2023-12-14T02:43:17;7.30;99.90
1570;DHT22;778;50.120;8.698;2023-12-14T02:45:46;7.30;99.90
1570;DHT22;778;50.120;8.698;2023-12-14T02:48:14;7.30;99.90
1570;DHT22;778;50.120;8.698;2023-12-14T02:50:43;7.30;99.90
1570;DHT22;778;50.120;8.698;2023-12-14T02:53:11;7.30;99.90
1570;DHT22;778;50.120;8.698;2023-12-14T02:55:40;7.30;99.90
1570;DHT22;778;50.120;8.698;2023-12-14T02:58:10;7.30;99.90
1570;DHT22;778;50.120;8.698;2023-12-14T03:00:38;7.30;99.90
1570;DHT22;778;50.120;8.698;2023-12-14T03:03:07;7.30;99.90
1570;DHT22;778;50.120;8.698;2023-12-14T03:05:36;7.30;99.90
1570;DHT22;778;50.120;8.698;2023-12-14T03:08:04;7.30;99.90
1570;DHT22;778;50.120;8.698;2023-12-14T03:10:33;7.30;99.90
1570;DHT22;778;50.120;8.698;2023-12-14T03:13:01;7.20;99.90
1570;DHT22;778;50.120;8.698;2023-12-14T03:15:31;7.20;99.90
1570;DHT22;778;50.120;8.698;2023-12-14T03:18:00;7.10;99.90
1570;DHT22;778;50.120;8.698;2023-12-14T03:20:30;7.10;99.90
1570;DHT22;778;50.120;8.698;2023-12-14T03:22:59;7.10;99.90
1570;DHT22;778;50.120;8.698;2023-12-14T03:25:27;7.10;99.90
1570;DHT22;778;50.120;8.698;2023-12-14T03:27:56;7.00;99.90
1570;DHT22;778;50.120;8.698;2023-12-14T03:30:24;7.00;99.90
1570;DHT22;778;50.120;8.698;2023-12-14T03:32:55;7.00;99.90
1570;DHT22;778;50.120;8.698;2023-12-14T03:35:23;7.00;99.90
1570;DHT22;778;50.120;8.698;2023-12-14T03:37:52;7.00;99.90
1570;DHT22;778;50.120;8.698;2023-12-14T03:40:20;7.00;99.90
1570;DHT22;778;50.120;8.698;2023-12-14T03:42:49;7.00;99.90
1570;DHT22;778;50.120;8.698;2023-12-14T03:45:17;7.00;99.90
1570;DHT22;778;50.120;8.698;2023-12-14T03:47:46;6.90;99.90
1570;DHT22;778;50.120;8.698;2023-12-14T03:50:16;6.90;99.90
1570;DHT22;778;50.120;8.698;2023-12-14T03:52:44;6.80;99.90
1570;DHT22;778;50.120;8.698;2023-12-14T03:55:13;6.80;99.90
1570;DHT22;778;50.120;8.698;2023-12-14T03:57:42;6.70;99.90
1570;DHT22;778;50.120;8.698;2023-12-14T04:00:12;6.60;99.90
1570;DHT22;778;50.120;8.698;2023-12-14T04:02:41;6.60;99.90
1570;DHT22;778;50.120;8.698;2023-12-14T04:05:10;6.50;99.90
1570;DHT22;778;50.120;8.698;2023-12-14T04:07:40;6.60;99.90
1570;DHT22;778;50.120;8.698;2023-12-14T04:10:09;6.50;99.90
1570;DHT22;778;50.120;8.698;2023-12-14T04:12:39;6.60;99.90
1570;DHT22;778;50.120;8.698;2023-12-14T04:15:09;6.60;99.90
1570;DHT22;778;50.120;8.698;2023-12-14T04:17:38;6.60;99.90
1570;DHT22;778;50.120;8.698;2023-12-14T04:20:08;6.50;99.90
1570;DHT22;778;50.120;8.698;2023-12-14T04:22:37;6.50;99.90
1570;DHT22;778;50.120;8.698;2023-12-14T04:25:08;6.50;99.90
1570;DHT22;778;50.120;8.698;2023-12-14T04:27:38;6.50;99.90
1570;DHT22;778;50.120;8.698;2023-12-14T04:30:07;6.60;99.90
1570;DHT22;778;50.120;8.698;2023-12-14T04:32:38;6.60;99.90
1570;DHT22;778;50.120;8.698;2023-12-14T04:35:07;6.60;99.90
1570;DHT22;778;50.120;8.698;2023-12-14T04:37:36;6.60;99.90
1570;DHT22;778;50.120;8.698;2023-12-14T04:40:07;6.60;99.90
1570;DHT22;778;50.120;8.698;2023-12-14T04:42:36;6.50;99.90
1570;DHT22;778;50.120;8.698;2023-12-14T04:45:06;6.50;99.90
1570;DHT22;778;50.120;8.698;2023-12-14T04:47:36;6.50;99.90
1570;DHT22;778;50.120;8.698;2023-12-14T04:50:05;6.40;99.90
1570;DHT22;778;50.120;8.698;2023-12-14T04:52:34;6.40;99.90
1570;DHT22;778;50.120;8.698;2023-12-14T04:55:04;6.40;99.90
1570;DHT22;778;50.120;8.698;2023-12-14T04:57:36;6.30;99.90
1570;DHT22;778;50.120;8.698;2023-12-14T05:00:06;6.30;99.90
1570;DHT22;778;50.120;8.698;2023-12-14T05:02:35;6.40;99.90
1570;DHT22;778;50.120;8.698;2023-12-14T05:05:04;6.40;99.90
1570;DHT22;778;50.120;8.698;2023-12-14T05:07:33;6.40;99.90
1570;DHT22;778;50.120;8.698;2023-12-14T05:10:01;6.40;99.90
1570;DHT22;778;50.120;8.698;2023-12-14T05:12:30;6.40;99.90
1570;DHT22;778;50.120;8.698;2023-12-14T05:15:00;6.40;99.90
1570;DHT22;778;50.120;8.698;2023-12-14T05:17:29;6.40;99.90
1570;DHT22;778;50.120;8.698;2023-12-14T05:19:58;6.40;99.90
1570;DHT22;778;50.120;8.698;2023-12-14T05:22:27;6.40;99.90
1570;DHT22;778;50.120;8.698;2023-12-14T05:24:55;6.30;99.90
1570;DHT22;778;50.120;8.698;2023-12-14T05:27:23;6.40;99.90
1570;DHT22;778;50.120;8.698;2023-12-14T05:29:52;6.40;99.90
1570;DHT22;778;50.120;8.698;2023-12-14T05:32:22;6.30;99.90
1570;DHT22;778;50.120;8.698;2023-12-14T05:34:50;6.30;99.90
1570;DHT22;778;50.120;8.698;2023-12-14T05:37:19;6.30;99.90
1570;DHT22;778;50.120;8.698;2023-12-14T05:39:47;6.30;99.90
1570;DHT22;778;50.120;8.698;2023-12-14T05:42:16;6.40;99.90
1570;DHT22;778;50.120;8.698;2023-12-14T05:44:44;6.40;99.90
1570;DHT22;778;50.120;8.698;2023-12-14T05:47:13;6.30;99.90
1570;DHT22;778;50.120;8.698;2023-12-14T05:49:43;6.30;99.90
1570;DHT22;778;50.120;8.698;2023-12-14T05:52:12;6.30;99.90
1570;DHT22;778;50.120;8.698;2023-12-14T05:54:40;6.30;99.90
1570;DHT22;778;50.120;8.698;2023-12-14T05:57:09;6.30;99.90
1570;DHT22;778;50.120;8.698;2023-12-14T05:59:40;6.30;99.90
1570;DHT22;778;50.120;8.698;2023-12-14T06:02:08;6.30;99.90
1570;DHT22;778;50.120;8.698;2023-12-14T06:04:38;6.30;99.90
1570;DHT22;778;50.120;8.698;2023-12-14T06:07:11;6.30;99.90
1570;DHT22;778;50.120;8.698;2023-12-14T06:09:42;6.30;99.90
1570;DHT22;778;50.120;8.698;2023-12-14T06:12:10;6.30;99.90
1570;DHT22;778;50.120;8.698;2023-12-14T06:14:40;6.30;99.90
1570;DHT22;778;50.120;8.698;2023-12-14T06:17:09;6.40;99.90
1570;DHT22;778;50.120;8.698;2023-12-14T06:19:37;6.40;99.90
1570;DHT22;778;50.120;8.698;2023-12-14T06:22:06;6.40;99.90
1570;DHT22;778;50.120;8.698;2023-12-14T06:24:35;6.40;99.90
1570;DHT22;778;50.120;8.698;2023-12-14T06:27:04;6.50;99.90
1570;DHT22;778;50.120;8.698;2023-12-14T06:29:32;6.50;99.90
1570;DHT22;778;50.120;8.698;2023-12-14T06:32:01;6.50;99.90
1570;DHT22;778;50.120;8.698;2023-12-14T06:34:29;6.60;99.90
1570;DHT22;778;50.120;8.698;2023-12-14T06:36:58;6.60;99.90
1570;DHT22;778;50.120;8.698;2023-12-14T06:39:28;6.60;99.90
1570;DHT22;778;50.120;8.698;2023-12-14T06:41:58;6.60;99.90
1570;DHT22;778;50.120;8.698;2023-12-14T06:44:27;6.60;99.90
1570;DHT22;778;50.120;8.698;2023-12-14T06:46:57;6.60;99.90
1570;DHT22;778;50.120;8.698;2023-12-14T06:49:26;6.60;99.90
1570;DHT22;778;50.120;8.698;2023-12-14T06:51:54;6.60;99.90
1570;DHT22;778;50.120;8.698;2023-12-14T06:54:23;6.60;99.90
1570;DHT22;778;50.120;8.698;2023-12-14T06:56:51;6.60;99.90
1570;DHT22;778;50.120;8.698;2023-12-14T06:59:21;6.60;99.90
1570;DHT22;778;50.120;8.698;2023-12-14T07:01:49;6.60;99.90
1570;DHT22;778;50.120;8.698;2023-12-14T07:04:19;6.60;99.90
1570;DHT22;778;50.120;8.698;2023-12-14T07:06:50;6.70;99.90
1570;DHT22;778;50.120;8.698;2023-12-14T07:09:19;6.70;99.90
1570;DHT22;778;50.120;8.698;2023-12-14T07:11:47;6.70;99.90
1570;DHT22;778;50.120;8.698;2023-12-14T07:14:16;6.70;99.90
1570;DHT22;778;50.120;8.698;2023-12-14T07:16:46;6.70;99.90
1570;DHT22;778;50.120;8.698;2023-12-14T07:19:15;6.70;99.90
1570;DHT22;778;50.120;8.698;2023-12-14T07:21:43;6.70;99.90
1570;DHT22;778;50.120;8.698;2023-12-14T07:24:12;6.70;99.90
1570;DHT22;778;50.120;8.698;2023-12-14T07:26:40;6.70;99.90
1570;DHT22;778;50.120;8.698;2023-12-14T07:29:08;6.70;99.90
1570;DHT22;778;50.120;8.698;2023-12-14T07:31:37;6.70;99.90
1570;DHT22;778;50.120;8.698;2023-12-14T07:34:12;6.70;99.90
1570;DHT22;778;50.120;8.698;2023-12-14T07:36:41;6.70;99.90
1570;DHT22;778;50.120;8.698;2023-12-14T07:39:09;6.70;99.90
1570;DHT22;778;50.120;8.698;2023-12-14T07:41:38;6.80;99.90
1570;DHT22;778;50.120;8.698;2023-12-14T07:44:06;6.80;99.90
1570;DHT22;778;50.120;8.698;2023-12-14T07:46:35;6.80;99.90
1570;DHT22;778;50.120;8.698;2023-12-14T07:49:07;6.90;99.90
1570;DHT22;778;50.120;8.698;2023-12-14T07:51:36;6.90;99.90
1570;DHT22;778;50.120;8.698;2023-12-14T07:54:05;6.90;99.90
1570;DHT22;778;50.120;8.698;2023-12-14T07:56:33;6.90;99.90
1570;DHT22;778;50.120;8.698;2023-12-14T07:59:02;6.90;99.90
1570;DHT22;778;50.120;8.698;2023-12-14T08:01:33;6.90;99.90
1570;DHT22;778;50.120;8.698;2023-12-14T08:04:02;6.90;99.90
1570;DHT22;778;50.120;8.698;2023-12-14T08:06:33;6.90;99.90
1570;DHT22;778;50.120;8.698;2023-12-14T08:09:01;7.00;99.90
1570;DHT22;778;50.120;8.698;2023-12-14T08:11:30;7.10;99.90
1570;DHT22;778;50.120;8.698;2023-12-14T08:13:59;7.20;99.90
1570;DHT22;778;50.120;8.698;2023-12-14T08:16:28;7.50;99.90
1570;DHT22;778;50.120;8.698;2023-12-14T08:18:57;7.90;99.90
1570;DHT22;778;50.120;8.698;2023-12-14T08:21:25;7.60;99.90
1570;DHT22;778;50.120;8.698;2023-12-14T08:23:55;7.60;99.90
1570;DHT22;778;50.120;8.698;2023-12-14T08:26:24;7.50;99.90
1570;DHT22;778;50.120;8.698;2023-12-14T08:28:52;7.50;99.90
1570;DHT22;778;50.120;8.698;2023-12-14T08:31:21;7.50;99.90
1570;DHT22;778;50.120;8.698;2023-12-14T08:33:49;7.50;99.90
1570;DHT22;778;50.120;8.698;2023-12-14T08:36:19;7.40;99.90
1570;DHT22;778;50.120;8.698;2023-12-14T08:38:48;7.40;99.90
1570;DHT22;778;50.120;8.698;2023-12-14T08:41:17;7.40;99.90
1570;DHT22;778;50.120;8.698;2023-12-14T08:43:46;7.40;99.90
1570;DHT22;778;50.120;8.698;2023-12-14T08:46:14;7.40;99.90
1570;DHT22;778;50.120;8.698;2023-12-14T08:48:43;7.50;99.90
1570;DHT22;778;50.120;8.698;2023-12-14T08:51:11;7.50;99.90
1570;DHT22;778;50.120;8.698;2023-12-14T08:53:40;7.50;99.90
1570;DHT22;778;50.120;8.698;2023-12-14T08:56:09;7.60;99.90
1570;DHT22;778;50.120;8.698;2023-12-14T08:58:39;7.60;99.90
1570;DHT22;778;50.120;8.698;2023-12-14T09:01:07;7.60;99.90
1570;DHT22;778;50.120;8.698;2023-12-14T09:03:36;7.70;99.90
1570;DHT22;778;50.120;8.698;2023-12-14T09:06:04;7.80;99.90
1570;DHT22;778;50.120;8.698;2023-12-14T09:08:33;7.90;99.90
1570;DHT22;778;50.120;8.698;2023-12-14T09:11:02;7.90;99.90
1570;DHT22;778;50.120;8.698;2023-12-14T09:13:31;7.90;99.90
1570;DHT22;778;50.120;8.698;2023-12-14T09:16:01;7.90;99.90
1570;DHT22;778;50.120;8.698;2023-12-14T09:18:29;7.90;99.90
1570;DHT22;778;50.120;8.698;2023-12-14T09:20:58;7.90;99.90
1570;DHT22;778;50.120;8.698;2023-12-14T09:23:27;7.90;99.90
1570;DHT22;778;50.120;8.698;2023-12-14T09:25:55;7.90;99.90
1570;DHT22;778;50.120;8.698;2023-12-14T09:28:25;7.90;99.90
1570;DHT22;778;50.120;8.698;2023-12-14T09:30:53;8.00;99.90
1570;DHT22;778;50.120;8.698;2023-12-14T09:33:24;7.90;99.90
1570;DHT22;778;50.120;8.698;2023-12-14T09:35:52;8.00;99.90
1570;DHT22;778;50.120;8.698;2023-12-14T09:38:21;8.00;99.90
1570;DHT22;778;50.120;8.698;2023-12-14T09:40:49;8.00;99.90
1570;DHT22;778;50.120;8.698;2023-12-14T09:43:18;8.00;99.90
1570;DHT22;778;50.120;8.698;2023-12-14T09:45:47;8.00;99.90
1570;DHT22;778;50.120;8.698;2023-12-14T09:48:18;8.10;99.90
1570;DHT22;778;50.120;8.698;2023-12-14T09:50:49;8.10;99.90
1570;DHT22;778;50.120;8.698;2023-12-14T09:53:18;8.10;99.90
1570;DHT22;778;50.120;8.698;2023-12-14T09:55:47;8.10;99.90
1570;DHT22;778;50.120;8.698;2023-12-14T09:58:16;8.10;99.90
1570;DHT22;778;50.120;8.698;2023-12-14T10:00:44;8.10;99.90
1570;DHT22;778;50.120;8.698;2023-12-14T10:03:21;8.10;99.90
1570;DHT22;778;50.120;8.698;2023-12-14T10:05:53;8.10;99.90
1570;DHT22;778;50.120;8.698;2023-12-14T10:08:22;8.10;99.90
1570;DHT22;778;50.120;8.698;2023-12-14T10:10:52;8.20;99.90
1570;DHT22;778;50.120;8.698;2023-12-14T10:13:36;8.20;99.90
1570;DHT22;778;50.120;8.698;2023-12-14T10:16:05;8.20;99.90
1570;DHT22;778;50.120;8.698;2023-12-14T10:18:34;8.20;99.90
1570;DHT22;778;50.120;8.698;2023-12-14T10:21:06;8.20;99.90
1570;DHT22;778;50.120;8.698;2023-12-14T10:23:35;8.20;99.90
1570;DHT22;778;50.120;8.698;2023-12-14T10:26:04;8.20;99.90
1570;DHT22;778;50.120;8.698;2023-12-14T10:28:33;8.30;99.90
1570;DHT22;778;50.120;8.698;2023-12-14T10:31:02;8.30;99.90
1570;DHT22;778;50.120;8.698;2023-12-14T10:33:32;8.30;99.90
1570;DHT22;778;50.120;8.698;2023-12-14T10:36:01;8.40;99.90
1570;DHT22;778;50.120;8.698;2023-12-14T10:38:32;8.30;99.90
1570;DHT22;778;50.120;8.698;2023-12-14T10:41:02;8.40;99.90
1570;DHT22;778;50.120;8.698;2023-12-14T10:43:32;8.40;99.90
1570;DHT22;778;50.120;8.698;2023-12-14T10:46:16;8.50;99.90
1570;DHT22;778;50.120;8.698;2023-12-14T10:48:45;8.50;99.90
1570;DHT22;778;50.120;8.698;2023-12-14T10:51:17;8.50;99.90
1570;DHT22;778;50.120;8.698;2023-12-14T10:53:48;8.50;99.90
1570;DHT22;778;50.120;8.698;2023-12-14T10:56:18;8.50;99.90
1570;DHT22;778;50.120;8.698;2023-12-14T10:58:48;8.50;99.90
1570;DHT22;778;50.120;8.698;2023-12-14T11:01:20;8.50;99.90
1570;DHT22;778;50.120;8.698;2023-12-14T11:03:54;8.60;99.90
1570;DHT22;778;50.120;8.698;2023-12-14T11:06:28;8.60;99.90
1570;DHT22;778;50.120;8.698;2023-12-14T11:09:01;8.60;99.90
1570;DHT22;778;50.120;8.698;2023-12-14T11:11:41;8.60;99.90
1570;DHT22;778;50.120;8.698;2023-12-14T11:14:12;8.60;99.90
1570;DHT22;778;50.120;8.698;2023-12-14T11:16:41;8.70;99.90
1570;DHT22;778;50.120;8.698;2023-12-14T11:19:27;8.70;99.90
1570;DHT22;778;50.120;8.698;2023-12-14T11:22:10;8.70;99.90
1570;DHT22;778;50.120;8.698;2023-12-14T11:24:54;8.70;99.90
1570;DHT22;778;50.120;8.698;2023-12-14T11:27:27;8.60;99.90
1570;DHT22;778;50.120;8.698;2023-12-14T11:29:57;8.60;99.90
1570;DHT22;778;50.120;8.698;2023-12-14T11:32:26;8.60;99.90
1570;DHT22;778;50.120;8.698;2023-12-14T11:34:55;8.70;99.90
1570;DHT22;778;50.120;8.698;2023-12-14T11:37:25;8.70;99.90
1570;DHT22;778;50.120;8.698;2023-12-14T11:39:56;8.70;99.90
1570;DHT22;778;50.120;8.698;2023-12-14T11:42:24;8.80;99.90
1570;DHT22;778;50.120;8.698;2023-12-14T11:44:53;8.80;99.90
1570;DHT22;778;50.120;8.698;2023-12-14T11:47:21;8.80;99.90
1570;DHT22;778;50.120;8.698;2023-12-14T11:49:50;8.90;99.90
1570;DHT22;778;50.120;8.698;2023-12-14T11:52:19;8.90;99.90
1570;DHT22;778;50.120;8.698;2023-12-14T11:54:47;9.00;99.90
1570;DHT22;778;50.120;8.698;2023-12-14T11:57:17;9.00;99.90
1570;DHT22;778;50.120;8.698;2023-12-14T11:59:46;9.00;99.90
1570;DHT22;778;50.120;8.698;2023-12-14T12:02:23;9.00;99.90
1570;DHT22;778;50.120;8.698;2023-12-14T12:04:52;9.00;99.90
1570;DHT22;778;50.120;8.698;2023-12-14T12:07:21;9.00;99.90
1570;DHT22;778;50.120;8.698;2023-12-14T12:09:49;9.00;99.90
1570;DHT22;778;50.120;8.698;2023-12-14T12:12:20;8.90;99.90
1570;DHT22;778;50.120;8.698;2023-12-14T12:14:49;9.00;99.90
1570;DHT22;778;50.120;8.698;2023-12-14T12:17:19;9.00;99.90
1570;DHT22;778;50.120;8.698;2023-12-14T12:19:48;9.00;99.90
1570;DHT22;778;50.120;8.698;2023-12-14T12:22:17;9.10;99.90
1570;DHT22;778;50.120;8.698;2023-12-14T12:24:45;9.10;99.90
1570;DHT22;778;50.120;8.698;2023-12-14T12:27:22;9.10;99.90
1570;DHT22;778;50.120;8.698;2023-12-14T12:29:50;9.10;99.90
1570;DHT22;778;50.120;8.698;2023-12-14T12:32:21;9.20;99.90
1570;DHT22;778;50.120;8.698;2023-12-14T12:34:49;9.10;99.90
1570;DHT22;778;50.120;8.698;2023-12-14T12:37:19;9.10;99.90
1570;DHT22;778;50.120;8.698;2023-12-14T12:39:48;9.10;99.90
1570;DHT22;778;50.120;8.698;2023-12-14T12:42:17;9.10;99.90
1570;DHT22;778;50.120;8.698;2023-12-14T12:44:47;9.10;99.90
1570;DHT22;778;50.120;8.698;2023-12-14T12:47:15;9.00;99.90
1570;DHT22;778;50.120;8.698;2023-12-14T12:49:44;9.10;99.90
1570;DHT22;778;50.120;8.698;2023-12-14T12:52:12;9.10;99.90
1570;DHT22;778;50.120;8.698;2023-12-14T12:54:40;9.10;99.90
1570;DHT22;778;50.120;8.698;2023-12-14T12:57:09;9.10;99.90
1570;DHT22;778;50.120;8.698;2023-12-14T12:59:37;9.10;99.90
1570;DHT22;778;50.120;8.698;2023-12-14T13:02:07;9.10;99.90
1570;DHT22;778;50.120;8.698;2023-12-14T13:04:36;9.10;99.90
1570;DHT22;778;50.120;8.698;2023-12-14T13:07:04;9.10;99.90
1570;DHT22;778;50.120;8.698;2023-12-14T13:09:33;9.00;99.90
1570;DHT22;778;50.120;8.698;2023-12-14T13:12:01;8.90;99.90
1570;DHT22;778;50.120;8.698;2023-12-14T13:14:31;8.90;99.90
1570;DHT22;778;50.120;8.698;2023-12-14T13:16:59;8.90;99.90
1570;DHT22;778;50.120;8.698;2023-12-14T13:19:29;8.90;99.90
1570;DHT22;778;50.120;8.698;2023-12-14T13:21:58;8.90;99.90
1570;DHT22;778;50.120;8.698;2023-12-14T13:24:26;8.90;99.90
1570;DHT22;778;50.120;8.698;2023-12-14T13:26:55;9.00;99.90
1570;DHT22;778;50.120;8.698;2023-12-14T13:29:23;8.90;99.90
1570;DHT22;778;50.120;8.698;2023-12-14T13:31:52;8.90;99.90
1570;DHT22;778;50.120;8.698;2023-12-14T13:34:20;8.90;99.90
1570;DHT22;778;50.120;8.698;2023-12-14T13:36:50;8.80;99.90
1570;DHT22;778;50.120;8.698;2023-12-14T13:39:19;8.90;99.90
1570;DHT22;778;50.120;8.698;2023-12-14T13:41:47;9.00;99.90
1570;DHT22;778;50.120;8.698;2023-12-14T13:44:17;8.90;99.90
1570;DHT22;778;50.120;8.698;2023-12-14T13:46:46;8.90;99.90
1570;DHT22;778;50.120;8.698;2023-12-14T13:49:14;8.90;99.90
1570;DHT22;778;50.120;8.698;2023-12-14T13:51:43;8.90;99.90
1570;DHT22;778;50.120;8.698;2023-12-14T13:54:12;8.90;99.90
1570;DHT22;778;50.120;8.698;2023-12-14T13:56:41;9.00;99.90
1570;DHT22;778;50.120;8.698;2023-12-14T13:59:09;9.10;99.90
1570;DHT22;778;50.120;8.698;2023-12-14T14:01:38;9.10;99.90
1570;DHT22;778;50.120;8.698;2023-12-14T14:04:06;9.00;99.90
1570;DHT22;778;50.120;8.698;2023-12-14T14:06:36;9.00;99.90
1570;DHT22;778;50.120;8.698;2023-12-14T14:09:04;9.00;99.90
1570;DHT22;778;50.120;8.698;2023-12-14T14:11:35;9.00;99.90
1570;DHT22;778;50.120;8.698;2023-12-14T14:14:03;8.90;99.90
1570;DHT22;778;50.120;8.698;2023-12-14T14:16:32;8.90;99.90
1570;DHT22;778;50.120;8.698;2023-12-14T14:19:00;8.90;99.90
1570;DHT22;778;50.120;8.698;2023-12-14T14:21:29;8.80;99.90
1570;DHT22;778;50.120;8.698;2023-12-14T14:23:57;8.80;99.90
1570;DHT22;778;50.120;8.698;2023-12-14T14:26:26;8.70;99.90
1570;DHT22;778;50.120;8.698;2023-12-14T14:28:56;8.80;99.90
1570;DHT22;778;50.120;8.698;2023-12-14T14:31:29;8.80;99.90
1570;DHT22;778;50.120;8.698;2023-12-14T14:34:00;8.70;99.90
1570;DHT22;778;50.120;8.698;2023-12-14T14:36:28;8.70;99.90
1570;DHT22;778;50.120;8.698;2023-12-14T14:38:57;8.70;99.90
1570;DHT22;778;50.120;8.698;2023-12-14T14:41:25;8.70;99.90
1570;DHT22;778;50.120;8.698;2023-12-14T14:43:55;8.70;99.90
1570;DHT22;778;50.120;8.698;2023-12-14T14:46:24;8.70;99.90
1570;DHT22;778;50.120;8.698;2023-12-14T14:48:52;8.80;99.90
1570;DHT22;778;50.120;8.698;2023-12-14T14:51:21;8.70;99.90
1570;DHT22;778;50.120;8.698;2023-12-14T14:53:52;8.70;99.90
1570;DHT22;778;50.120;8.698;2023-12-14T14:56:20;8.80;99.90
1570;DHT22;778;50.120;8.698;2023-12-14T14:58:49;8.70;99.90
1570;DHT22;778;50.120;8.698;2023-12-14T15:01:19;8.60;99.90
1570;DHT22;778;50.120;8.698;2023-12-14T15:03:47;8.60;99.90
1570;DHT22;778;50.120;8.698;2023-12-14T15:06:16;8.70;99.90
1570;DHT22;778;50.120;8.698;2023-12-14T15:08:45;8.70;99.90
1570;DHT22;778;50.120;8.698;2023-12-14T15:11:13;8.70;99.90
1570;DHT22;778;50.120;8.698;2023-12-14T15:13:42;8.60;99.90
1570;DHT22;778;50.120;8.698;2023-12-14T15:16:11;8.60;99.90
1570;DHT22;778;50.120;8.698;2023-12-14T15:18:41;8.60;99.90
1570;DHT22;778;50.120;8.698;2023-12-14T15:21:10;8.60;99.90
1570;DHT22;778;50.120;8.698;2023-12-14T15:23:42;8.60;99.90
1570;DHT22;778;50.120;8.698;2023-12-14T15:26:13;8.50;99.90
1570;DHT22;778;50.120;8.698;2023-12-14T15:28:42;8.50;99.90
1570;DHT22;778;50.120;8.698;2023-12-14T15:31:11;8.50;99.90
1570;DHT22;778;50.120;8.698;2023-12-14T15:33:41;8.50;99.90
1570;DHT22;778;50.120;8.698;2023-12-14T15:36:09;8.40;99.90
1570;DHT22;778;50.120;8.698;2023-12-14T15:38:38;8.40;99.90
1570;DHT22;778;50.120;8.698;2023-12-14T15:41:08;8.40;99.90
1570;DHT22;778;50.120;8.698;2023-12-14T15:43:36;8.30;99.90
1570;DHT22;778;50.120;8.698;2023-12-14T15:46:06;8.20;99.90
1570;DHT22;778;50.120;8.698;2023-12-14T15:48:35;8.30;99.90
1570;DHT22;778;50.120;8.698;2023-12-14T15:51:09;8.20;99.90
1570;DHT22;778;50.120;8.698;2023-12-14T15:53:38;8.20;99.90
1570;DHT22;778;50.120;8.698;2023-12-14T15:56:07;8.20;99.90
1570;DHT22;778;50.120;8.698;2023-12-14T15:58:36;8.10;99.90
1570;DHT22;778;50.120;8.698;2023-12-14T16:01:05;7.90;99.90
1570;DHT22;778;50.120;8.698;2023-12-14T16:03:34;7.80;99.90
1570;DHT22;778;50.120;8.698;2023-12-14T16:06:03;7.80;99.90
1570;DHT22;778;50.120;8.698;2023-12-14T16:08:33;7.80;99.90
1570;DHT22;778;50.120;8.698;2023-12-14T16:11:02;7.80;99.90
1570;DHT22;778;50.120;8.698;2023-12-14T16:13:30;7.80;99.90
1570;DHT22;778;50.120;8.698;2023-12-14T16:15:59;7.80;99.90
1570;DHT22;778;50.120;8.698;2023-12-14T16:18:27;7.80;99.90
1570;DHT22;778;50.120;8.698;2023-12-14T16:20:57;7.80;99.90
1570;DHT22;778;50.120;8.698;2023-12-14T16:23:26;7.70;99.90
1570;DHT22;778;50.120;8.698;2023-12-14T16:25:56;7.80;99.90
1570;DHT22;778;50.120;8.698;2023-12-14T16:28:25;7.70;99.90
1570;DHT22;778;50.120;8.698;2023-12-14T16:30:54;7.70;99.90
1570;DHT22;778;50.120;8.698;2023-12-14T16:33:22;7.70;99.90
1570;DHT22;778;50.120;8.698;2023-12-14T16:35:51;7.60;99.90
1570;DHT22;778;50.120;8.698;2023-12-14T16:38:21;7.60;99.90
1570;DHT22;778;50.120;8.698;2023-12-14T16:40:49;7.60;99.90
1570;DHT22;778;50.120;8.698;2023-12-14T16:43:19;7.80;99.90
1570;DHT22;778;50.120;8.698;2023-12-14T16:45:48;7.60;99.90
1570;DHT22;778;50.120;8.698;2023-12-14T16:48:20;7.60;99.90